Preview of NWS' New Version of Forecast
This preview is not operational and should not be used for support decisions.

Terminal Aerodrome Forecast (TAF)

Issued by National Weather Service (NWS)

                            
085 
FTUS42 KMFL 262058 AAA
TAFMIA
TAF AMD
KMIA 262058Z 2621/2724 11015KT P6SM SHRA SCT014 BKN020 OVC030
      TEMPO 2621/2622 6SM RA BKN025
     FM270800 16015KT P6SM SHRA VCTS SCT010 BKN030CB
     FM271200 17015G25KT P6SM VCSH OVC030=